Time;durP1;ratioP1;P1;durP2;ratioP2;P2;SDS_P1;SDS_P2;PMS_P1;PMS_P2;Temp;Humidity;BMP_temperature;BMP_pressure;BME280_temperature;BME280_humidity;BME280_pressure;Samples;Min_cycle;Max_cycle;Signal;HPM_P1;HPM_P2
2022/01/07 00:02:23;;;;;;;;;;;21.70;47.50;;;;;;5117261;28;19931;-52
2022/01/07 00:04:50;;;;;;;;;;;21.60;47.40;;;;;;5115982;27;19977;-51
2022/01/07 00:07:17;;;;;;;;;;;21.70;47.50;;;;;;5116837;28;20402;-54
2022/01/07 00:09:44;;;;;;;;;;;21.70;47.50;;;;;;5116709;28;20006;-48
2022/01/07 00:12:11;;;;;;;;;;;21.60;47.40;;;;;;5116865;28;19962;-56
2022/01/07 00:14:38;;;;;;;;;;;21.60;47.40;;;;;;5117033;28;19930;-53
2022/01/07 00:17:06;;;;;;;;;;;21.70;47.50;;;;;;5116654;28;20015;-49
2022/01/07 00:19:33;;;;;;;;;;;21.60;47.40;;;;;;5115210;27;19939;-56
2022/01/07 00:22:00;;;;;;;;;;;21.60;47.40;;;;;;5116386;28;19930;-49
2022/01/07 00:24:27;;;;;;;;;;;21.60;47.40;;;;;;5116509;28;19927;-58
2022/01/07 00:26:54;;;;;;;;;;;21.60;47.40;;;;;;5116809;28;19924;-52
2022/01/07 00:29:21;;;;;;;;;;;21.60;47.40;;;;;;5116440;28;19962;-49
2022/01/07 00:31:48;;;;;;;;;;;21.60;47.40;;;;;;5117138;28;19924;-50
2022/01/07 00:34:15;;;;;;;;;;;21.60;47.40;;;;;;5116670;28;19946;-49
2022/01/07 00:36:42;;;;;;;;;;;21.60;47.40;;;;;;5115094;27;19924;-49
2022/01/07 00:39:09;;;;;;;;;;;21.60;47.40;;;;;;5116454;28;19924;-55
2022/01/07 00:41:36;;;;;;;;;;;21.60;47.40;;;;;;5116518;28;20298;-53
2022/01/07 00:44:04;;;;;;;;;;;21.60;47.40;;;;;;5116464;28;19931;-51
2022/01/07 00:46:31;;;;;;;;;;;21.60;47.40;;;;;;5116159;28;19924;-46
2022/01/07 00:48:58;;;;;;;;;;;21.60;47.40;;;;;;5116081;28;19927;-51
2022/01/07 00:51:25;;;;;;;;;;;21.60;47.40;;;;;;5115114;28;20329;-56
2022/01/07 00:53:52;;;;;;;;;;;21.60;47.40;;;;;;5115697;28;19927;-57
2022/01/07 00:56:19;;;;;;;;;;;21.60;47.40;;;;;;5116219;28;19931;-50
2022/01/07 00:58:46;;;;;;;;;;;21.60;47.40;;;;;;5116213;28;20293;-53
2022/01/07 01:01:14;;;;;;;;;;;21.60;47.40;;;;;;5116143;28;19987;-51
2022/01/07 01:03:41;;;;;;;;;;;21.60;47.40;;;;;;5116370;28;19947;-57
2022/01/07 01:06:08;;;;;;;;;;;21.60;47.40;;;;;;5114850;28;19932;-55
2022/01/07 01:08:35;;;;;;;;;;;21.60;47.40;;;;;;5115934;28;20331;-53
2022/01/07 01:11:04;;;;;;;;;;;21.60;47.40;;;;;;5115419;28;19930;-57
2022/01/07 01:13:31;;;;;;;;;;;21.60;47.40;;;;;;5115504;28;19931;-57
2022/01/07 01:15:59;;;;;;;;;;;21.60;47.40;;;;;;5116698;28;19924;-56
2022/01/07 01:18:26;;;;;;;;;;;21.60;47.40;;;;;;5115505;28;19931;-53
2022/01/07 01:20:53;;;;;;;;;;;21.60;47.40;;;;;;5114636;28;20309;-55
2022/01/07 01:23:20;;;;;;;;;;;21.60;47.30;;;;;;5115188;28;19924;-54
2022/01/07 01:25:47;;;;;;;;;;;21.60;47.40;;;;;;5115667;28;19924;-55
2022/01/07 01:28:14;;;;;;;;;;;21.60;47.40;;;;;;5115589;28;19924;-58
2022/01/07 01:30:41;;;;;;;;;;;21.60;47.40;;;;;;5115253;28;19930;-53
2022/01/07 01:33:08;;;;;;;;;;;21.60;47.40;;;;;;5115977;28;19928;-57
2022/01/07 01:35:37;;;;;;;;;;;21.60;47.40;;;;;;5114113;28;19977;-50
2022/01/07 01:38:04;;;;;;;;;;;21.60;47.40;;;;;;5097278;28;19930;-57
2022/01/07 01:40:31;;;;;;;;;;;21.60;47.40;;;;;;5115047;28;19931;-50
2022/01/07 01:42:58;;;;;;;;;;;21.60;47.40;;;;;;5115326;28;20014;-56
2022/01/07 01:45:25;;;;;;;;;;;21.60;47.40;;;;;;5114959;28;19924;-51
2022/01/07 01:47:53;;;;;;;;;;;21.60;47.40;;;;;;5114927;28;19977;-50
2022/01/07 01:50:20;;;;;;;;;;;21.60;47.40;;;;;;5113676;27;19924;-59
2022/01/07 01:52:48;;;;;;;;;;;21.60;47.40;;;;;;5114595;28;19924;-54
2022/01/07 01:55:17;;;;;;;;;;;21.60;47.40;;;;;;5115083;28;19946;-56
2022/01/07 01:57:45;;;;;;;;;;;21.60;47.40;;;;;;5114754;28;20010;-50
2022/01/07 02:00:12;;;;;;;;;;;21.60;47.40;;;;;;5115025;28;19924;-57
2022/01/07 02:02:40;;;;;;;;;;;21.60;47.40;;;;;;5114650;28;19930;-56
2022/01/07 02:05:08;;;;;;;;;;;21.60;47.40;;;;;;5114945;28;20287;-48
2022/01/07 02:07:37;;;;;;;;;;;21.60;47.40;;;;;;5113621;27;19924;-55
2022/01/07 02:10:05;;;;;;;;;;;21.60;47.40;;;;;;5114444;28;19973;-53
2022/01/07 02:12:32;;;;;;;;;;;21.60;47.30;;;;;;5114741;28;19924;-52
2022/01/07 02:14:59;;;;;;;;;;;21.60;47.40;;;;;;5114781;28;19927;-57
2022/01/07 02:17:27;;;;;;;;;;;21.60;47.40;;;;;;5114724;28;19930;-49
2022/01/07 02:19:54;;;;;;;;;;;21.60;47.40;;;;;;5096288;28;19923;-50
2022/01/07 02:22:23;;;;;;;;;;;21.50;47.30;;;;;;5112745;28;19984;-54
2022/01/07 02:24:51;;;;;;;;;;;21.60;47.40;;;;;;5114311;28;19931;-57
2022/01/07 02:27:19;;;;;;;;;;;21.60;47.40;;;;;;5114318;28;19928;-58
2022/01/07 02:29:48;;;;;;;;;;;21.60;47.40;;;;;;5114582;28;19923;-53
2022/01/07 02:32:15;;;;;;;;;;;21.50;47.30;;;;;;5114169;28;19924;-57
2022/01/07 02:34:42;;;;;;;;;;;21.50;47.30;;;;;;5114208;28;19923;-56
2022/01/07 02:37:10;;;;;;;;;;;21.50;47.30;;;;;;5113390;28;19931;-52
2022/01/07 02:39:38;;;;;;;;;;;21.50;47.30;;;;;;5114067;28;20546;-51
2022/01/07 02:42:06;;;;;;;;;;;21.50;47.30;;;;;;5114140;28;20378;-56
2022/01/07 02:44:33;;;;;;;;;;;21.50;47.30;;;;;;5114419;28;19923;-58
2022/01/07 02:47:01;;;;;;;;;;;21.50;47.30;;;;;;5114128;28;19930;-52
2022/01/07 02:49:28;;;;;;;;;;;21.50;47.30;;;;;;5114374;28;19928;-58
2022/01/07 02:51:55;;;;;;;;;;;21.50;47.40;;;;;;5113118;28;19924;-54
2022/01/07 02:54:22;;;;;;;;;;;21.50;47.30;;;;;;5113933;28;19924;-58
2022/01/07 02:56:49;;;;;;;;;;;21.50;47.30;;;;;;5113991;28;19928;-49
2022/01/07 02:59:16;;;;;;;;;;;21.50;47.30;;;;;;5114284;28;19924;-54
2022/01/07 03:01:43;;;;;;;;;;;21.50;47.30;;;;;;5113959;28;19931;-52
2022/01/07 03:04:11;;;;;;;;;;;21.50;47.30;;;;;;5113949;28;20008;-52
2022/01/07 03:06:38;;;;;;;;;;;21.50;47.30;;;;;;5112724;28;20399;-56
2022/01/07 03:09:06;;;;;;;;;;;21.50;47.30;;;;;;5113793;28;20026;-48
2022/01/07 03:11:35;;;;;;;;;;;21.50;47.30;;;;;;5114178;28;19924;-48
2022/01/07 03:14:02;;;;;;;;;;;21.50;47.90;;;;;;5114127;28;19931;-53
2022/01/07 03:16:29;;;;;;;;;;;21.50;47.40;;;;;;5095896;28;20422;-57
2022/01/07 03:18:56;;;;;;;;;;;21.50;47.30;;;;;;5113773;28;20345;-52
2022/01/07 03:21:23;;;;;;;;;;;21.50;47.30;;;;;;5113051;28;19924;-50
2022/01/07 03:23:51;;;;;;;;;;;21.50;47.30;;;;;;5113586;28;19931;-57
2022/01/07 03:26:18;;;;;;;;;;;21.50;47.30;;;;;;5113739;28;19924;-56
2022/01/07 03:28:46;;;;;;;;;;;21.50;47.30;;;;;;5096069;28;20275;-59
2022/01/07 03:31:13;;;;;;;;;;;21.50;47.30;;;;;;5113685;28;19930;-56
2022/01/07 03:33:40;;;;;;;;;;;21.50;47.40;;;;;;5114385;28;19945;-54
2022/01/07 03:36:07;;;;;;;;;;;21.50;47.30;;;;;;5117852;28;19930;-48
2022/01/07 03:38:34;;;;;;;;;;;21.50;47.40;;;;;;5098118;28;19923;-53
2022/01/07 03:41:02;;;;;;;;;;;21.50;47.30;;;;;;5117420;28;19931;-51
2022/01/07 03:43:29;;;;;;;;;;;21.50;47.40;;;;;;5117325;28;19931;-55
2022/01/07 03:45:56;;;;;;;;;;;21.50;47.40;;;;;;5117652;28;19930;-48
2022/01/07 03:48:23;;;;;;;;;;;21.50;47.40;;;;;;5117276;28;19924;-55
2022/01/07 03:50:50;;;;;;;;;;;21.50;47.40;;;;;;5117524;28;20267;-56
2022/01/07 03:53:17;;;;;;;;;;;21.50;47.40;;;;;;5098055;28;19923;-56
2022/01/07 03:55:44;;;;;;;;;;;21.50;47.40;;;;;;5117147;28;19924;-55
2022/01/07 03:58:12;;;;;;;;;;;21.50;47.40;;;;;;5117073;28;19950;-58
2022/01/07 04:00:41;;;;;;;;;;;21.40;47.30;;;;;;5116987;28;20391;-56
2022/01/07 04:03:13;;;;;;;;;;;21.40;47.30;;;;;;5117028;28;19957;-52
2022/01/07 04:05:40;;;;;;;;;;;21.50;47.40;;;;;;5116925;28;19924;-58
2022/01/07 04:08:08;;;;;;;;;;;21.40;47.30;;;;;;5115597;27;19924;-56
2022/01/07 04:10:35;;;;;;;;;;;21.40;47.30;;;;;;5116869;28;19931;-54
2022/01/07 04:13:03;;;;;;;;;;;21.40;47.30;;;;;;5117024;28;20029;-57
2022/01/07 04:15:30;;;;;;;;;;;21.40;47.30;;;;;;5116715;28;19927;-55
2022/01/07 04:17:57;;;;;;;;;;;21.40;47.30;;;;;;5116467;28;19923;-55
2022/01/07 04:20:26;;;;;;;;;;;21.40;47.30;;;;;;5116699;28;19930;-57
2022/01/07 04:22:53;;;;;;;;;;;21.40;47.30;;;;;;5115343;27;19969;-56
2022/01/07 04:25:21;;;;;;;;;;;21.40;47.30;;;;;;5116535;28;20387;-55
2022/01/07 04:27:49;;;;;;;;;;;21.40;47.30;;;;;;5116508;28;20010;-55
2022/01/07 04:30:17;;;;;;;;;;;21.40;47.30;;;;;;5116500;28;19924;-57
2022/01/07 04:32:44;;;;;;;;;;;21.40;47.30;;;;;;5116367;28;19924;-54
2022/01/07 04:35:12;;;;;;;;;;;21.40;47.30;;;;;;5116397;28;19924;-55
2022/01/07 04:37:39;;;;;;;;;;;21.40;47.30;;;;;;5115307;27;19927;-52
2022/01/07 04:40:08;;;;;;;;;;;21.40;47.30;;;;;;5098517;28;19947;-55
2022/01/07 04:42:35;;;;;;;;;;;21.40;47.30;;;;;;5116256;28;19931;-56
2022/01/07 04:45:02;;;;;;;;;;;21.40;47.30;;;;;;5116099;28;19924;-57
2022/01/07 04:47:29;;;;;;;;;;;21.40;47.30;;;;;;5116328;28;19928;-58
2022/01/07 04:49:56;;;;;;;;;;;21.40;47.30;;;;;;5116430;28;19924;-52
2022/01/07 04:52:23;;;;;;;;;;;21.40;47.30;;;;;;5114739;27;19928;-57
2022/01/07 04:54:50;;;;;;;;;;;21.40;47.30;;;;;;5115919;28;20453;-51
2022/01/07 04:57:17;;;;;;;;;;;21.40;47.30;;;;;;5116258;28;19930;-52
2022/01/07 04:59:44;;;;;;;;;;;21.40;47.30;;;;;;5115872;28;19931;-55
2022/01/07 05:02:11;;;;;;;;;;;21.40;47.30;;;;;;5116155;28;20299;-56
2022/01/07 05:04:38;;;;;;;;;;;21.40;47.30;;;;;;5116396;28;19928;-51
2022/01/07 05:07:06;;;;;;;;;;;21.40;47.30;;;;;;5116042;28;20296;-53
2022/01/07 05:09:34;;;;;;;;;;;21.40;47.30;;;;;;5096346;28;19924;-53
2022/01/07 05:12:02;;;;;;;;;;;21.40;47.40;;;;;;5115620;28;19924;-55
2022/01/07 05:14:29;;;;;;;;;;;21.40;47.30;;;;;;5115522;28;19977;-58
2022/01/07 05:16:56;;;;;;;;;;;21.40;47.30;;;;;;5115853;28;19924;-55
2022/01/07 05:19:23;;;;;;;;;;;21.40;47.40;;;;;;5115306;28;19930;-57
2022/01/07 05:21:50;;;;;;;;;;;21.40;47.30;;;;;;5115266;28;19924;-51
2022/01/07 05:24:17;;;;;;;;;;;21.40;47.30;;;;;;5114982;27;19930;-52
2022/01/07 05:26:44;;;;;;;;;;;21.40;47.40;;;;;;5097372;28;19924;-54
2022/01/07 05:29:11;;;;;;;;;;;21.40;47.30;;;;;;5115629;28;20287;-53
2022/01/07 05:31:38;;;;;;;;;;;21.40;47.30;;;;;;5115244;28;20371;-57
2022/01/07 05:34:05;;;;;;;;;;;21.40;47.30;;;;;;5115158;28;19924;-51
2022/01/07 05:36:32;;;;;;;;;;;21.40;47.30;;;;;;5115133;28;19924;-47
2022/01/07 05:38:59;;;;;;;;;;;21.40;47.30;;;;;;5114092;27;19928;-58
2022/01/07 05:41:26;;;;;;;;;;;21.40;47.30;;;;;;5115034;28;19931;-56
2022/01/07 05:43:53;;;;;;;;;;;21.40;47.30;;;;;;5097078;28;20436;-51
2022/01/07 05:46:20;;;;;;;;;;;21.40;47.30;;;;;;5115006;28;19924;-48
2022/01/07 05:48:47;;;;;;;;;;;21.40;47.30;;;;;;5114970;28;19924;-52
2022/01/07 05:51:14;;;;;;;;;;;21.40;47.30;;;;;;5115187;28;19931;-56
2022/01/07 05:53:42;;;;;;;;;;;21.40;47.30;;;;;;5113443;27;20386;-55
2022/01/07 05:56:09;;;;;;;;;;;21.40;47.40;;;;;;5115114;28;19928;-50
2022/01/07 05:58:36;;;;;;;;;;;21.30;47.30;;;;;;5114236;28;19928;-47
2022/01/07 06:01:04;;;;;;;;;;;21.30;47.30;;;;;;5114715;28;19924;-58
2022/01/07 06:03:33;;;;;;;;;;;21.30;47.30;;;;;;5114989;28;19967;-55
2022/01/07 06:06:00;;;;;;;;;;;21.30;47.30;;;;;;5114601;28;19923;-50
2022/01/07 06:08:27;;;;;;;;;;;21.30;47.30;;;;;;5113171;28;19927;-47
2022/01/07 06:10:54;;;;;;;;;;;21.30;47.30;;;;;;5114548;28;19924;-49
2022/01/07 06:13:21;;;;;;;;;;;21.30;47.30;;;;;;5114749;28;19924;-48
2022/01/07 06:15:48;;;;;;;;;;;21.30;47.30;;;;;;5096774;28;19924;-47
2022/01/07 06:18:15;;;;;;;;;;;21.40;47.40;;;;;;5114342;28;20283;-50
2022/01/07 06:20:43;;;;;;;;;;;21.30;47.30;;;;;;5096454;28;19931;-47
2022/01/07 06:23:10;;;;;;;;;;;21.30;47.30;;;;;;5113968;28;19923;-52
2022/01/07 06:25:37;;;;;;;;;;;21.30;47.30;;;;;;5114225;28;20371;-50
2022/01/07 06:28:04;;;;;;;;;;;21.30;47.30;;;;;;5114591;28;19923;-50
2022/01/07 06:30:31;;;;;;;;;;;21.30;47.30;;;;;;5114249;28;19924;-49
2022/01/07 06:32:58;;;;;;;;;;;21.30;47.30;;;;;;5114540;28;19946;-56
2022/01/07 06:35:25;;;;;;;;;;;21.30;47.30;;;;;;5114439;28;19936;-51
2022/01/07 06:37:52;;;;;;;;;;;21.30;47.30;;;;;;5114076;28;20413;-54
2022/01/07 06:40:19;;;;;;;;;;;21.30;47.30;;;;;;5112943;28;20398;-57
2022/01/07 06:42:46;;;;;;;;;;;21.30;47.30;;;;;;5114150;28;19997;-51
2022/01/07 06:45:13;;;;;;;;;;;21.30;47.30;;;;;;5114445;28;20385;-57
2022/01/07 06:47:40;;;;;;;;;;;21.30;47.20;;;;;;5114061;28;19935;-57
2022/01/07 06:50:07;;;;;;;;;;;21.30;47.30;;;;;;5114099;28;20337;-55
2022/01/07 06:52:34;;;;;;;;;;;21.30;47.30;;;;;;5113893;28;19931;-54
2022/01/07 06:55:02;;;;;;;;;;;21.30;47.30;;;;;;5112798;28;19924;-52
2022/01/07 06:57:29;;;;;;;;;;;21.30;47.30;;;;;;5113955;28;19977;-52
2022/01/07 06:59:56;;;;;;;;;;;21.30;47.30;;;;;;5114280;28;19946;-52
2022/01/07 07:02:23;;;;;;;;;;;21.30;47.30;;;;;;5113939;28;19931;-53
2022/01/07 07:04:50;;;;;;;;;;;21.30;47.20;;;;;;5113938;28;20375;-55
2022/01/07 07:07:17;;;;;;;;;;;21.30;47.30;;;;;;5114181;28;19931;-53
2022/01/07 07:09:44;;;;;;;;;;;21.30;47.30;;;;;;5115287;27;19924;-54
2022/01/07 07:12:12;;;;;;;;;;;21.30;47.30;;;;;;5118266;28;19924;-51
2022/01/07 07:14:40;;;;;;;;;;;21.30;47.20;;;;;;5117772;28;19985;-52
2022/01/07 07:17:07;;;;;;;;;;;21.30;47.30;;;;;;5118703;28;19930;-52
2022/01/07 07:19:34;;;;;;;;;;;21.30;47.30;;;;;;5117696;28;19923;-49
2022/01/07 07:22:01;;;;;;;;;;;21.30;47.30;;;;;;5117835;28;20018;-54
2022/01/07 07:24:28;;;;;;;;;;;21.30;47.30;;;;;;5116605;28;19931;-55
2022/01/07 07:26:56;;;;;;;;;;;21.30;47.20;;;;;;5117726;28;19927;-58
2022/01/07 07:29:23;;;;;;;;;;;21.30;47.20;;;;;;5117883;28;20017;-54
2022/01/07 07:31:54;;;;;;;;;;;21.30;47.30;;;;;;5117849;28;19924;-53
2022/01/07 07:37:21;;;;;;;;;;;21.30;47.20;;;;;;5054871;28;19925;-54
2022/01/07 07:39:48;;;;;;;;;;;21.30;47.20;;;;;;5053558;28;19929;-56
2022/01/07 07:42:15;;;;;;;;;;;21.30;47.10;;;;;;5054666;28;19974;-51
2022/01/07 07:44:42;;;;;;;;;;;21.30;47.20;;;;;;5054645;28;19932;-54
2022/01/07 07:47:09;;;;;;;;;;;21.30;47.10;;;;;;5054717;28;19924;-55
2022/01/07 07:49:36;;;;;;;;;;;21.30;47.10;;;;;;5054569;28;19924;-51
2022/01/07 07:52:04;;;;;;;;;;;21.30;47.10;;;;;;5054335;28;19924;-49
2022/01/07 07:54:31;;;;;;;;;;;21.30;47.10;;;;;;5053331;28;19979;-56
2022/01/07 07:56:59;;;;;;;;;;;21.30;47.10;;;;;;5054394;28;19929;-52
2022/01/07 07:59:26;;;;;;;;;;;21.40;47.10;;;;;;5054442;28;19936;-57
2022/01/07 08:01:53;;;;;;;;;;;21.30;47.10;;;;;;5054323;28;19955;-53
2022/01/07 08:04:21;;;;;;;;;;;21.30;47.00;;;;;;5054239;28;19947;-51
2022/01/07 08:06:49;;;;;;;;;;;21.30;47.00;;;;;;5054344;28;19925;-50
2022/01/07 08:09:16;;;;;;;;;;;21.30;47.00;;;;;;5053460;28;19925;-47
2022/01/07 08:11:57;;;;;;;;;;;21.30;47.00;;;;;;5053873;28;19932;-46
2022/01/07 08:17:09;;;;;;;;;;;21.40;47.10;;;;;;5116810;28;19963;-50
2022/01/07 08:19:36;;;;;;;;;;;21.30;47.00;;;;;;5116326;28;19923;-46
2022/01/07 08:22:04;;;;;;;;;;;21.40;47.00;;;;;;5116011;28;19924;-47
2022/01/07 08:24:31;;;;;;;;;;;21.40;47.00;;;;;;5115648;27;19931;-57
2022/01/07 08:26:58;;;;;;;;;;;21.40;46.90;;;;;;5098534;28;19930;-52
2022/01/07 08:29:30;;;;;;;;;;;21.40;46.90;;;;;;5116809;28;19930;-50
2022/01/07 08:34:54;;;;;;;;;;;21.40;46.90;;;;;;5116366;28;19924;-55
2022/01/07 08:37:26;;;;;;;;;;;21.40;46.90;;;;;;5116678;28;19924;-56
2022/01/07 08:39:54;;;;;;;;;;;21.40;46.90;;;;;;5115399;27;19974;-54
2022/01/07 08:42:26;;;;;;;;;;;21.40;46.80;;;;;;5116645;28;19924;-49
2022/01/07 08:44:54;;;;;;;;;;;21.40;46.80;;;;;;5098726;28;20397;-52
2022/01/07 08:47:23;;;;;;;;;;;21.40;46.80;;;;;;5116505;28;20294;-50
2022/01/07 08:49:50;;;;;;;;;;;21.40;46.70;;;;;;5116498;28;20410;-52
2022/01/07 08:52:19;;;;;;;;;;;21.40;46.70;;;;;;5098390;28;19923;-47
2022/01/07 08:54:47;;;;;;;;;;;21.40;46.70;;;;;;5115075;28;19931;-47
2022/01/07 08:57:14;;;;;;;;;;;21.40;46.70;;;;;;5115464;28;19924;-56
2022/01/07 08:59:41;;;;;;;;;;;21.40;46.70;;;;;;5115928;28;19931;-49
2022/01/07 09:02:08;;;;;;;;;;;21.40;46.70;;;;;;5116128;28;19924;-45
2022/01/07 09:04:35;;;;;;;;;;;21.40;46.70;;;;;;5116029;28;19927;-49
2022/01/07 09:07:03;;;;;;;;;;;21.40;46.70;;;;;;5116025;28;19930;-55
2022/01/07 09:09:30;;;;;;;;;;;21.40;46.70;;;;;;5115879;28;20333;-49
2022/01/07 09:12:01;;;;;;;;;;;21.40;46.60;;;;;;5114401;28;20371;-51
2022/01/07 09:14:28;;;;;;;;;;;21.40;47.20;;;;;;5115449;28;19923;-54
2022/01/07 09:16:55;;;;;;;;;;;21.50;46.70;;;;;;5115668;28;20347;-52
2022/01/07 09:19:22;;;;;;;;;;;21.50;46.60;;;;;;5115298;28;19923;-49
2022/01/07 09:21:49;;;;;;;;;;;21.50;46.60;;;;;;5115220;28;19923;-54
2022/01/07 09:24:17;;;;;;;;;;;21.50;46.50;;;;;;5097580;28;19976;-55
2022/01/07 09:26:44;;;;;;;;;;;21.50;46.50;;;;;;5114342;27;19923;-50
2022/01/07 09:29:11;;;;;;;;;;;21.50;46.50;;;;;;5115272;28;19924;-54
2022/01/07 09:31:38;;;;;;;;;;;21.50;46.40;;;;;;5115256;28;20285;-48
2022/01/07 09:34:06;;;;;;;;;;;21.50;46.40;;;;;;5115339;28;19923;-53
2022/01/07 09:36:53;;;;;;;;;;;21.50;46.40;;;;;;5115234;28;19927;-51
2022/01/07 09:39:20;;;;;;;;;;;21.50;46.40;;;;;;5114977;28;19931;-57
2022/01/07 09:41:47;;;;;;;;;;;21.50;46.30;;;;;;5113903;27;20386;-47
2022/01/07 09:44:14;;;;;;;;;;;21.50;46.30;;;;;;5114972;28;19928;-55
2022/01/07 09:46:41;;;;;;;;;;;21.50;46.30;;;;;;5114925;28;20307;-56
2022/01/07 09:49:08;;;;;;;;;;;21.60;46.30;;;;;;5114901;28;19928;-55
2022/01/07 09:51:36;;;;;;;;;;;21.60;46.30;;;;;;5115219;28;19931;-53
2022/01/07 09:54:04;;;;;;;;;;;21.60;46.30;;;;;;5114843;28;19924;-55
2022/01/07 09:56:31;;;;;;;;;;;21.60;46.30;;;;;;5113413;27;19924;-54
2022/01/07 09:59:00;;;;;;;;;;;21.60;46.20;;;;;;5114757;28;19927;-58
2022/01/07 10:01:27;;;;;;;;;;;21.60;46.20;;;;;;5114665;28;19980;-52
2022/01/07 10:03:55;;;;;;;;;;;21.60;46.20;;;;;;5114661;28;19931;-52
2022/01/07 10:06:23;;;;;;;;;;;21.60;46.80;;;;;;5114547;28;20440;-56
2022/01/07 10:09:01;;;;;;;;;;;21.60;46.20;;;;;;5114584;28;20319;-56
2022/01/07 10:11:28;;;;;;;;;;;21.60;46.20;;;;;;5113700;28;19924;-54
2022/01/07 10:14:13;;;;;;;;;;;21.60;46.20;;;;;;5114419;28;20383;-51
2022/01/07 10:17:06;;;;;;;;;;;21.60;46.10;;;;;;5114228;28;20301;-51
2022/01/07 10:19:35;;;;;;;;;;;21.60;46.10;;;;;;5109888;28;19946;-48
2022/01/07 10:22:05;;;;;;;;;;;21.70;46.70;;;;;;5114087;28;19942;-52
2022/01/07 10:24:51;;;;;;;;;;;21.60;46.40;;;;;;5114224;28;20444;-54
2022/01/07 10:27:18;;;;;;;;;;;21.70;46.50;;;;;;5113566;28;20292;-55
2022/01/07 10:29:45;;;;;;;;;;;21.70;46.40;;;;;;5114486;28;19924;-52
2022/01/07 10:32:24;;;;;;;;;;;21.70;46.40;;;;;;5114183;28;20299;-51
2022/01/07 10:35:03;;;;;;;;;;;21.70;46.30;;;;;;5114349;28;19927;-54
2022/01/07 10:37:30;;;;;;;;;;;21.70;46.20;;;;;;5114296;28;19927;-54
2022/01/07 10:39:57;;;;;;;;;;;21.70;46.20;;;;;;5114356;28;19968;-52
2022/01/07 10:42:25;;;;;;;;;;;21.70;46.20;;;;;;5113447;28;20287;-53
2022/01/07 10:44:59;;;;;;;;;;;21.70;46.10;;;;;;5113452;28;19927;-52
2022/01/07 10:47:28;;;;;;;;;;;21.70;46.10;;;;;;5114302;28;19924;-55
2022/01/07 10:50:12;;;;;;;;;;;21.80;46.20;;;;;;5113972;28;19949;-50
2022/01/07 10:52:40;;;;;;;;;;;21.70;46.00;;;;;;5113847;28;19927;-58
2022/01/07 10:55:11;;;;;;;;;;;21.70;46.00;;;;;;5114248;28;20332;-54
2022/01/07 10:57:45;;;;;;;;;;;21.80;46.10;;;;;;5112809;28;20043;-50
2022/01/07 11:00:19;;;;;;;;;;;21.80;46.10;;;;;;5114308;28;19923;-54
2022/01/07 11:02:47;;;;;;;;;;;21.80;46.00;;;;;;5114015;28;19972;-51
2022/01/07 11:05:15;;;;;;;;;;;21.80;46.00;;;;;;5113904;28;19974;-57
2022/01/07 11:07:42;;;;;;;;;;;21.80;46.00;;;;;;5113780;28;19969;-53
2022/01/07 11:10:10;;;;;;;;;;;21.80;46.00;;;;;;5113902;28;20416;-53
2022/01/07 11:12:37;;;;;;;;;;;21.80;46.00;;;;;;5112721;28;19924;-51
2022/01/07 11:15:09;;;;;;;;;;;21.80;46.00;;;;;;5114111;28;20340;-57
2022/01/07 11:17:37;;;;;;;;;;;21.80;46.00;;;;;;5114200;28;19924;-53
2022/01/07 11:20:04;;;;;;;;;;;21.80;46.00;;;;;;5114113;28;19927;-50
2022/01/07 11:22:32;;;;;;;;;;;21.80;46.00;;;;;;5113912;28;19969;-53
2022/01/07 11:25:07;;;;;;;;;;;21.80;46.00;;;;;;5114058;28;19927;-55
2022/01/07 11:27:47;;;;;;;;;;;21.80;46.00;;;;;;5112480;28;19924;-48
2022/01/07 11:30:17;;;;;;;;;;;21.80;45.90;;;;;;5113716;28;19924;-54
2022/01/07 11:32:48;;;;;;;;;;;21.80;46.50;;;;;;5114023;28;19928;-57
2022/01/07 11:35:21;;;;;;;;;;;21.90;46.00;;;;;;5114446;28;20356;-58
2022/01/07 11:37:55;;;;;;;;;;;21.80;45.90;;;;;;5113856;28;19924;-57
2022/01/07 11:40:29;;;;;;;;;;;21.80;45.90;;;;;;5113621;28;19923;-52
2022/01/07 11:43:00;;;;;;;;;;;21.80;45.90;;;;;;5112875;28;19931;-54
2022/01/07 11:45:28;;;;;;;;;;;21.80;45.80;;;;;;5095930;28;19923;-58
2022/01/07 11:47:56;;;;;;;;;;;21.90;45.90;;;;;;5113852;28;19924;-56
2022/01/07 11:50:24;;;;;;;;;;;21.90;45.90;;;;;;5113836;28;20290;-58
2022/01/07 11:52:55;;;;;;;;;;;21.90;45.80;;;;;;5113341;28;19924;-58
2022/01/07 11:55:29;;;;;;;;;;;21.90;45.80;;;;;;5113728;28;19977;-50
2022/01/07 11:57:57;;;;;;;;;;;21.90;45.80;;;;;;5116349;27;19947;-56
2022/01/07 12:00:43;;;;;;;;;;;21.90;45.70;;;;;;5118300;28;19923;-52
2022/01/07 12:03:10;;;;;;;;;;;21.90;45.70;;;;;;5117381;28;19927;-51
2022/01/07 12:05:37;;;;;;;;;;;21.90;45.80;;;;;;5117009;28;19924;-58
2022/01/07 12:08:04;;;;;;;;;;;21.90;45.70;;;;;;5116847;28;19923;-53
2022/01/07 12:10:31;;;;;;;;;;;21.90;45.60;;;;;;5117764;28;19924;-58
2022/01/07 12:12:59;;;;;;;;;;;22.00;45.70;;;;;;5115927;27;19924;-57
2022/01/07 12:15:27;;;;;;;;;;;22.00;45.70;;;;;;5116761;28;19931;-57
2022/01/07 12:18:06;;;;;;;;;;;22.00;45.70;;;;;;5116852;28;19923;-55
2022/01/07 12:20:33;;;;;;;;;;;22.00;45.70;;;;;;5099593;28;19977;-54
2022/01/07 12:23:00;;;;;;;;;;;22.00;45.60;;;;;;5116493;28;19928;-59
2022/01/07 12:25:27;;;;;;;;;;;22.00;45.60;;;;;;5116600;28;19923;-51
2022/01/07 12:27:59;;;;;;;;;;;22.00;45.60;;;;;;5115281;28;19927;-49
2022/01/07 12:30:27;;;;;;;;;;;22.00;45.50;;;;;;5116488;28;19969;-57
2022/01/07 12:33:00;;;;;;;;;;;22.00;45.50;;;;;;5116698;28;19930;-56
2022/01/07 12:35:29;;;;;;;;;;;22.00;45.50;;;;;;5116365;28;20477;-57
2022/01/07 12:37:56;;;;;;;;;;;22.00;45.50;;;;;;5116559;28;19973;-57
2022/01/07 12:40:23;;;;;;;;;;;22.10;45.50;;;;;;5116307;28;20420;-57
2022/01/07 12:42:50;;;;;;;;;;;22.10;45.50;;;;;;5115017;27;19927;-53
2022/01/07 12:45:20;;;;;;;;;;;22.10;45.40;;;;;;5117093;28;19924;-57
2022/01/07 12:47:47;;;;;;;;;;;22.10;45.40;;;;;;5117387;28;19924;-57
2022/01/07 12:50:14;;;;;;;;;;;22.10;45.40;;;;;;5116431;28;19924;-57
2022/01/07 12:52:42;;;;;;;;;;;22.10;45.30;;;;;;5115880;28;19923;-55
2022/01/07 12:55:20;;;;;;;;;;;22.10;45.30;;;;;;5115974;28;19923;-58
2022/01/07 12:57:51;;;;;;;;;;;22.20;45.30;;;;;;5114597;27;20383;-57
2022/01/07 13:00:34;;;;;;;;;;;22.20;45.30;;;;;;5115843;28;19924;-56
2022/01/07 13:03:06;;;;;;;;;;;22.20;45.30;;;;;;5115875;28;19927;-58
2022/01/07 13:05:41;;;;;;;;;;;22.20;45.30;;;;;;5115767;28;19970;-57
2022/01/07 13:08:15;;;;;;;;;;;22.20;45.20;;;;;;5115216;28;19931;-54
2022/01/07 13:10:43;;;;;;;;;;;22.20;45.20;;;;;;5115629;28;19928;-60
2022/01/07 13:13:18;;;;;;;;;;;22.20;45.20;;;;;;5114378;28;20378;-56
2022/01/07 13:15:46;;;;;;;;;;;22.20;45.10;;;;;;5115766;28;19931;-55
2022/01/07 13:18:18;;;;;;;;;;;22.20;45.10;;;;;;5115381;28;19927;-57
2022/01/07 13:20:48;;;;;;;;;;;22.30;45.20;;;;;;5115828;28;20291;-57
2022/01/07 13:23:16;;;;;;;;;;;22.30;45.10;;;;;;5115635;28;20268;-51
2022/01/07 13:25:44;;;;;;;;;;;22.30;45.10;;;;;;5115677;28;19924;-47
2022/01/07 13:28:11;;;;;;;;;;;22.30;45.10;;;;;;5114134;27;19928;-52
2022/01/07 13:30:40;;;;;;;;;;;22.30;45.10;;;;;;5115304;28;19923;-55
2022/01/07 13:33:08;;;;;;;;;;;22.30;45.10;;;;;;5115596;28;19923;-55
2022/01/07 13:35:56;;;;;;;;;;;22.30;45.10;;;;;;5115145;28;20015;-53
2022/01/07 13:38:24;;;;;;;;;;;22.30;45.10;;;;;;5114992;28;19931;-58
2022/01/07 13:41:06;;;;;;;;;;;22.30;45.10;;;;;;5115130;28;19931;-57
2022/01/07 13:43:35;;;;;;;;;;;22.30;45.00;;;;;;5113863;28;19931;-56
2022/01/07 13:46:09;;;;;;;;;;;22.30;45.00;;;;;;5097093;28;19928;-52
2022/01/07 13:48:51;;;;;;;;;;;22.30;45.00;;;;;;5115084;28;19930;-53
2022/01/07 13:51:19;;;;;;;;;;;22.30;45.00;;;;;;5115260;28;19923;-55
2022/01/07 13:54:05;;;;;;;;;;;22.30;45.00;;;;;;5114693;28;19924;-54
2022/01/07 13:56:32;;;;;;;;;;;22.30;45.00;;;;;;5114753;28;20386;-51
2022/01/07 13:59:00;;;;;;;;;;;22.30;45.00;;;;;;5113522;28;19923;-58
2022/01/07 14:01:27;;;;;;;;;;;22.40;45.10;;;;;;5114747;28;19924;-57
2022/01/07 14:03:54;;;;;;;;;;;22.30;45.00;;;;;;5114708;28;19937;-47
2022/01/07 14:06:24;;;;;;;;;;;22.30;45.00;;;;;;5115011;28;20347;-52
2022/01/07 14:09:29;;;;;;;;;;;22.30;45.10;;;;;;5114445;28;19924;-58
2022/01/07 14:12:00;;;;;;;;;;;22.30;45.10;;;;;;5012508;28;20391;-51
2022/01/07 14:14:34;;;;;;;;;;;22.30;45.10;;;;;;5021705;28;19925;-56
2022/01/07 14:17:10;;;;;;;;;;;22.30;45.10;;;;;;5032779;28;20324;-53
2022/01/07 14:19:54;;;;;;;;;;;22.30;45.10;;;;;;5031012;28;20284;-58
2022/01/07 14:22:21;;;;;;;;;;;22.30;45.10;;;;;;5031692;28;19925;-51
2022/01/07 14:24:48;;;;;;;;;;;22.30;45.10;;;;;;5031867;28;19932;-51
2022/01/07 14:27:31;;;;;;;;;;;22.30;45.70;;;;;;5032642;28;20403;-54
2022/01/07 14:29:58;;;;;;;;;;;22.30;45.10;;;;;;5030477;28;19947;-57
2022/01/07 14:32:25;;;;;;;;;;;22.30;45.20;;;;;;5031777;28;19925;-59
2022/01/07 14:34:56;;;;;;;;;;;22.30;45.10;;;;;;5031727;28;20483;-52